Wednesday, May 23, 2018, 12:57 PM GMT
Back to Local

CWQH, Lennoxville

Location: , , Canada Lat: 45.367
Local Time: 12:57 PM GMT (12:57 GMT) Lon: -71.817
Time Zone: GMT Elev: 593 ft

Show me the last for .
Show Coded

Time T Td Feel RH Dir Speed Gust Alt SLP Vis Weather Sky Remarks
2018-05-23 12:00 57 56 - 94 190° 7 - - - 0 None
2018-05-23 11:00 56 56 - 100 230° 3 - - - 0 None
2018-05-23 10:00 55 55 - 100 190° 2 - - - 0 None
2018-05-23 09:00 53 53 - 100 180° 1 - - - 0 None
2018-05-23 08:00 55 53 - 93 - Calm - - - 0 None
2018-05-23 07:00 54 54 - 100 150° 3 - - - 0 None
2018-05-23 06:00 55 55 - 100 360° 1 - - - 0 None
2018-05-23 05:00 55 54 - 98 - Calm - - - 0 None
2018-05-23 04:00 55 53 - 92 40° 1 - - - 0 None
2018-05-23 03:00 55 54 - 95 10° 1 - - - 0 None
2018-05-23 02:00 56 53 - 88 40° 2 - - - 0 None
2018-05-23 01:00 56 53 - 87 150° 6 - - - 0 None
2018-05-23 00:00 56 54 - 91 200° 2 - - - 0 None
2018-05-22 23:00 58 54 - 84 160° 2 - - - 0 None
2018-05-22 22:00 62 53 - 72 180° 10 - - - 0 Peak wind: 25 mph (22 kts) from 200° at 04 min
2018-05-22 21:00 63 49 - 60 200° 17 25 - - 0 Peak wind: 25 mph (22 kts) from 190° at 55 min
2018-05-22 20:00 64 51 - 63 210° 15 22 - - 0 Peak wind: 29 mph (26 kts) from 200° at 11 min
2018-05-22 19:00 69 48 - 46 220° 23 31 - - 0 Peak wind: 34 mph (30 kts) from 210° at 45 min
2018-05-22 18:00 73 44 - 35 200° 21 31 - - 0 Peak wind: 32 mph (28 kts) from 190° at 27 min
2018-05-22 17:00 71 51 76 48 220° 7 - - - 0 None
2018-05-22 16:00 70 49 76 46 230° 10 - - - 0 None
2018-05-22 15:00 72 45 - 37 150° 9 - - - 0 None
2018-05-22 14:00 66 53 - 62 10° 2 - - - 0 None
2018-05-22 13:00 59 52 - 75 20° 2 - - - 0 None

Support USWX by starting your Amazon purchase here.